Coral Canyon GC
1925 N Canyon Greens Drive, Washington
Last Weather Update:11/13/2011 4:00:00 AM
Date
ETo
ETc
Rain
Irrigation
Req
Temp
Max
Temp
Min
Temp
Avg
Avg RH
Avg Wind
Avg Solar
inches
inches
incehs
inches
F
F
F
%
%
watts/m2
04/01/2012 0.10" 0.05" 0.04" 0.02" 68.5° 40.2° 52.3° 47.8% 2.4 MPH 175.0w/m2
04/02/2012 0.16" 0.08" 0.00" 0.08" 61.4° 33.2° 48.6° 38.1% 2.5 MPH 288.4w/m2
04/03/2012 0.15" 0.08" 0.00" 0.08" 71.3° 30.3° 51.4° 37.2% 1.2 MPH 283.6w/m2
04/04/2012 0.15" 0.08" 0.00" 0.08" 76.6° 42.9° 61.2° 27.3% 0.6 MPH 269.6w/m2
04/05/2012 0.17" 0.09" 0.00" 0.09" 74.4° 55.7° 65.1° 14.9% 2.5 MPH 236.7w/m2
04/06/2012 0.15" 0.08" 0.00" 0.08" 61.3° 38.1° 51.1° 23.3% 1.1 MPH 293.9w/m2
04/07/2012 0.16" 0.09" 0.00" 0.09" 77.3° 31.4° 53.7° 23.4% 0.1 MPH 298.6w/m2
04/08/2012 0.17" 0.09" 0.00" 0.09" 82.9° 34.3° 59.4° 21.0% 0.8 MPH 287.2w/m2
04/09/2012 0.18" 0.10" 0.00" 0.10" 84.9° 35.1° 60.9° 26.0% 1.1 MPH 295.4w/m2
04/10/2012 0.19" 0.11" 0.00" 0.11" 85.4° 43.8° 64.9° 23.8% 1.5 MPH 294.7w/m2
04/11/2012 0.13" 0.08" 0.00" 0.08" 70.8° 51.4° 62.0° 29.7% 1.9 MPH 196.6w/m2
04/12/2012 0.16" 0.10" 0.14" -0.02" 64.0° 44.2° 53.5° 49.1% 2.9 MPH 298.4w/m2
04/13/2012 0.10" 0.06" 0.00" 0.06" 62.7° 46.0° 53.3° 37.0% 1.6 MPH 140.7w/m2
04/14/2012 0.04" 0.03" 0.56" -0.42" 52.6° 38.2° 42.7° 79.3% 0.7 MPH 75.0w/m2
04/15/2012 0.13" 0.08" 0.02" 0.06" 62.1° 36.4° 48.9° 72.9% 0.5 MPH 243.3w/m2
04/16/2012 0.16" 0.10" 0.00" 0.10" 72.5° 38.5° 54.9° 55.3% 0.6 MPH 292.0w/m2
04/17/2012 0.17" 0.10" 0.00" 0.10" 78.4° 41.9° 60.4° 45.0% 0.7 MPH 285.2w/m2
04/18/2012 0.17" 0.10" 0.00" 0.10" 82.3° 48.5° 66.1° 33.8% 0.6 MPH 269.2w/m2
04/19/2012 0.19" 0.12" 0.00" 0.12" 84.2° 49.5° 68.4° 34.2% 0.9 MPH 301.2w/m2
04/20/2012 0.19" 0.12" 0.00" 0.12" 86.1° 50.7° 70.2° 30.8% 0.8 MPH 305.7w/m2
04/21/2012 0.21" 0.14" 0.00" 0.14" 91.7° 52.9° 72.3° 31.9% 1.6 MPH 310.3w/m2
04/22/2012 0.20" 0.13" 0.00" 0.13" 95.7° 52.9° 75.0° 26.9% 0.5 MPH 312.7w/m2
04/23/2012 0.22" 0.14" 0.00" 0.14" 96.8° 53.3° 77.0° 23.9% 1.1 MPH 310.5w/m2
04/24/2012 0.23" 0.15" 0.00" 0.15" 86.1° 57.3° 72.0° 26.3% 2.6 MPH 312.3w/m2
04/25/2012 0.10" 0.07" 0.00" 0.07" 75.3° 58.5° 67.6° 36.5% 2.3 MPH 104.3w/m2
04/26/2012 0.14" 0.10" 0.11" 0.01" 72.8° 57.2° 64.7° 43.5% 4.6 MPH 141.9w/m2
04/27/2012 0.23" 0.16" 0.00" 0.16" 75.9° 55.9° 65.8° 31.5% 4.5 MPH 307.0w/m2
04/28/2012 0.23" 0.16" 0.00" 0.16" 76.9° 53.3° 64.7° 22.6% 4.6 MPH 318.4w/m2
04/29/2012 0.22" 0.15" 0.00" 0.15" 79.2° 41.3° 61.2° 33.3% 2.9 MPH 325.1w/m2
04/30/2012 0.23" 0.16" 0.00" 0.16" 85.5° 44.0° 66.1° 28.1% 3.4 MPH 304.2w/m2
Totals: 5.05" 3.08" 0.87" 2.39" 96.8° 30.3° 61.2° 35.1% 1.8 MPH 262.6w/m2